sensor_id;sensor_type;location;lat;lon;timestamp;pressure;altitude;pressure_sealevel;temperature;humidity
72055;BME280;59936;51.490;5.436;2022-07-29T00:00:05;101421.66;;;17.50;64.48
72055;BME280;59936;51.490;5.436;2022-07-29T00:00:13;101414.47;;;17.53;64.48
72055;BME280;59936;51.490;5.436;2022-07-29T00:00:19;101415.41;;;17.52;64.54
72055;BME280;59936;51.490;5.436;2022-07-29T00:00:25;101417.88;;;17.55;64.64
72055;BME280;59936;51.490;5.436;2022-07-29T00:00:30;101418.69;;;17.55;64.40
72055;BME280;59936;51.490;5.436;2022-07-29T00:00:35;101421.25;;;17.57;64.55
72055;BME280;59936;51.490;5.436;2022-07-29T00:00:41;101421.25;;;17.57;64.51
72055;BME280;59936;51.490;5.436;2022-07-29T00:00:49;101415.50;;;17.50;64.40
72055;BME280;59936;51.490;5.436;2022-07-29T00:00:54;101419.47;;;17.43;65.26
72055;BME280;59936;51.490;5.436;2022-07-29T00:01:00;101421.16;;;17.44;64.99
72055;BME280;59936;51.490;5.436;2022-07-29T00:01:06;101415.25;;;17.40;64.96
72055;BME280;59936;51.490;5.436;2022-07-29T00:01:14;101415.81;;;17.31;65.03
72055;BME280;59936;51.490;5.436;2022-07-29T00:01:20;101415.34;;;17.24;65.60
72055;BME280;59936;51.490;5.436;2022-07-29T00:01:26;101415.56;;;17.21;66.22
72055;BME280;59936;51.490;5.436;2022-07-29T00:01:31;101416.38;;;17.21;66.17
72055;BME280;59936;51.490;5.436;2022-07-29T00:01:36;101420.63;;;17.24;65.91
72055;BME280;59936;51.490;5.436;2022-07-29T00:01:42;101419.00;;;17.21;65.90
72055;BME280;59936;51.490;5.436;2022-07-29T00:01:48;101412.81;;;17.22;65.72
72055;BME280;59936;51.490;5.436;2022-07-29T00:01:54;101416.38;;;17.21;65.49
72055;BME280;59936;51.490;5.436;2022-07-29T00:01:59;101410.56;;;17.16;65.44
72055;BME280;59936;51.490;5.436;2022-07-29T00:02:04;101415.66;;;17.19;65.65
72055;BME280;59936;51.490;5.436;2022-07-29T00:02:10;101416.19;;;17.24;65.54
72055;BME280;59936;51.490;5.436;2022-07-29T00:02:15;101420.25;;;17.30;65.04
72055;BME280;59936;51.490;5.436;2022-07-29T00:02:20;101415.63;;;17.34;65.12
72055;BME280;59936;51.490;5.436;2022-07-29T00:02:27;101417.13;;;17.38;65.33
72055;BME280;59936;51.490;5.436;2022-07-29T00:02:32;101412.50;;;17.42;64.84
72055;BME280;59936;51.490;5.436;2022-07-29T00:02:38;101414.28;;;17.41;65.36
72055;BME280;59936;51.490;5.436;2022-07-29T00:02:43;101416.38;;;17.36;65.71
72055;BME280;59936;51.490;5.436;2022-07-29T00:02:49;101414.88;;;17.32;65.84
72055;BME280;59936;51.490;5.436;2022-07-29T00:02:54;101420.25;;;17.30;65.43
72055;BME280;59936;51.490;5.436;2022-07-29T00:02:59;101420.06;;;17.33;65.35
72055;BME280;59936;51.490;5.436;2022-07-29T00:03:05;101419.03;;;17.36;65.37
72055;BME280;59936;51.490;5.436;2022-07-29T00:03:11;101412.59;;;17.40;65.22
72055;BME280;59936;51.490;5.436;2022-07-29T00:03:17;101418.66;;;17.42;65.09
72055;BME280;59936;51.490;5.436;2022-07-29T00:03:22;101419.28;;;17.46;64.91
72055;BME280;59936;51.490;5.436;2022-07-29T00:03:27;101422.66;;;17.48;64.93
72055;BME280;59936;51.490;5.436;2022-07-29T00:03:33;101419.94;;;17.49;64.74
72055;BME280;59936;51.490;5.436;2022-07-29T00:03:38;101422.47;;;17.51;65.08
72055;BME280;59936;51.490;5.436;2022-07-29T00:03:43;101418.91;;;17.52;64.81
72055;BME280;59936;51.490;5.436;2022-07-29T00:03:49;101418.78;;;17.54;64.78
72055;BME280;59936;51.490;5.436;2022-07-29T00:03:54;101416.16;;;17.54;64.60
72055;BME280;59936;51.490;5.436;2022-07-29T00:03:59;101410.06;;;17.53;64.84
72055;BME280;59936;51.490;5.436;2022-07-29T00:04:05;101419.75;;;17.53;64.35
72055;BME280;59936;51.490;5.436;2022-07-29T00:04:11;101416.16;;;17.54;64.63
72055;BME280;59936;51.490;5.436;2022-07-29T00:04:16;101418.69;;;17.55;64.59
72055;BME280;59936;51.490;5.436;2022-07-29T00:04:21;101410.69;;;17.57;64.38
72055;BME280;59936;51.490;5.436;2022-07-29T00:04:27;101421.25;;;17.57;64.36
72055;BME280;59936;51.490;5.436;2022-07-29T00:04:34;101423.78;;;17.58;64.59
72055;BME280;59936;51.490;5.436;2022-07-29T00:04:40;101414.09;;;17.59;64.09
72055;BME280;59936;51.490;5.436;2022-07-29T00:04:46;101417.47;;;17.61;64.17
72055;BME280;59936;51.490;5.436;2022-07-29T00:04:51;101416.53;;;17.62;64.38
72055;BME280;59936;51.490;5.436;2022-07-29T00:04:58;101416.53;;;17.62;64.53
72055;BME280;59936;51.490;5.436;2022-07-29T00:05:04;101420.88;;;17.63;64.27
72055;BME280;59936;51.490;5.436;2022-07-29T00:05:10;101416.41;;;17.63;64.50
72055;BME280;59936;51.490;5.436;2022-07-29T00:05:18;101414.63;;;17.64;64.32
72055;BME280;59936;51.490;5.436;2022-07-29T00:05:23;101417.28;;;17.64;64.25
72055;BME280;59936;51.490;5.436;2022-07-29T00:05:29;101419.91;;;17.64;64.36
72055;BME280;59936;51.490;5.436;2022-07-29T00:05:34;101417.56;;;17.59;64.42
72055;BME280;59936;51.490;5.436;2022-07-29T00:05:40;101419.75;;;17.53;64.45
72055;BME280;59936;51.490;5.436;2022-07-29T00:05:46;101411.09;;;17.50;64.75
72055;BME280;59936;51.490;5.436;2022-07-29T00:05:52;101421.66;;;17.50;64.71
72055;BME280;59936;51.490;5.436;2022-07-29T00:05:58;101421.66;;;17.50;64.90
72055;BME280;59936;51.490;5.436;2022-07-29T00:06:03;101419.09;;;17.49;64.98
72055;BME280;59936;51.490;5.436;2022-07-29T00:06:09;101419.00;;;17.50;64.71
72055;BME280;59936;51.490;5.436;2022-07-29T00:06:15;101421.66;;;17.50;64.72
72055;BME280;59936;51.490;5.436;2022-07-29T00:06:20;101419.00;;;17.50;64.63
72055;BME280;59936;51.490;5.436;2022-07-29T00:06:26;101416.28;;;17.52;64.63
72055;BME280;59936;51.490;5.436;2022-07-29T00:06:31;101414.47;;;17.53;64.71
72055;BME280;59936;51.490;5.436;2022-07-29T00:06:36;101409.97;;;17.55;64.59
72055;BME280;59936;51.490;5.436;2022-07-29T00:06:42;101409.97;;;17.55;64.44
72055;BME280;59936;51.490;5.436;2022-07-29T00:06:47;101414.28;;;17.56;64.76
72055;BME280;59936;51.490;5.436;2022-07-29T00:06:52;101410.69;;;17.57;64.45
72055;BME280;59936;51.490;5.436;2022-07-29T00:06:58;101426.53;;;17.57;64.52
72055;BME280;59936;51.490;5.436;2022-07-29T00:07:04;101414.28;;;17.56;64.75
72055;BME280;59936;51.490;5.436;2022-07-29T00:07:09;101417.00;;;17.54;64.80
72055;BME280;59936;51.490;5.436;2022-07-29T00:07:15;101409.97;;;17.55;64.89
72055;BME280;59936;51.490;5.436;2022-07-29T00:07:20;101417.88;;;17.55;64.68
72055;BME280;59936;51.490;5.436;2022-07-29T00:07:26;101416.28;;;17.52;64.57
72055;BME280;59936;51.490;5.436;2022-07-29T00:07:31;101412.97;;;17.48;64.50
72055;BME280;59936;51.490;5.436;2022-07-29T00:07:36;101416.00;;;17.42;64.48
72055;BME280;59936;51.490;5.436;2022-07-29T00:07:42;101411.84;;;17.38;64.91
72055;BME280;59936;51.490;5.436;2022-07-29T00:07:47;101415.63;;;17.34;65.37
72055;BME280;59936;51.490;5.436;2022-07-29T00:07:53;101414.69;;;17.35;65.27
72055;BME280;59936;51.490;5.436;2022-07-29T00:07:58;101415.63;;;17.34;65.10
72055;BME280;59936;51.490;5.436;2022-07-29T00:08:04;101414.88;;;17.32;65.46
72055;BME280;59936;51.490;5.436;2022-07-29T00:08:09;101408.66;;;17.33;65.52
72055;BME280;59936;51.490;5.436;2022-07-29T00:08:14;101412.25;;;17.32;65.25
72055;BME280;59936;51.490;5.436;2022-07-29T00:08:20;101422.03;;;17.30;64.99
72055;BME280;59936;51.490;5.436;2022-07-29T00:08:26;101416.19;;;17.24;65.34
72055;BME280;59936;51.490;5.436;2022-07-29T00:08:31;101408.66;;;17.18;65.63
72055;BME280;59936;51.490;5.436;2022-07-29T00:08:36;101416.78;;;17.15;65.69
72055;BME280;59936;51.490;5.436;2022-07-29T00:08:42;101418.66;;;17.13;65.83
72055;BME280;59936;51.490;5.436;2022-07-29T00:08:47;101417.13;;;17.09;65.73
72055;BME280;59936;51.490;5.436;2022-07-29T00:08:52;101415.59;;;17.05;66.25
72055;BME280;59936;51.490;5.436;2022-07-29T00:08:58;101411.28;;;17.04;66.47
72055;BME280;59936;51.490;5.436;2022-07-29T00:09:03;101410.41;;;17.03;66.54
72055;BME280;59936;51.490;5.436;2022-07-29T00:09:09;101413.56;;;17.10;66.45
72055;BME280;59936;51.490;5.436;2022-07-29T00:09:14;101410.56;;;17.16;65.90
72055;BME280;59936;51.490;5.436;2022-07-29T00:09:19;101406.78;;;17.20;65.85
72055;BME280;59936;51.490;5.436;2022-07-29T00:09:25;101407.53;;;17.22;65.84
72055;BME280;59936;51.490;5.436;2022-07-29T00:09:31;101409.25;;;17.23;65.77
72055;BME280;59936;51.490;5.436;2022-07-29T00:09:37;101410.56;;;17.16;66.21
72055;BME280;59936;51.490;5.436;2022-07-29T00:09:43;101409.78;;;17.14;66.28
72055;BME280;59936;51.490;5.436;2022-07-29T00:09:48;101408.28;;;17.10;66.14
72055;BME280;59936;51.490;5.436;2022-07-29T00:09:54;101413.66;;;17.08;66.00
72055;BME280;59936;51.490;5.436;2022-07-29T00:09:59;101413.38;;;17.13;66.07
72055;BME280;59936;51.490;5.436;2022-07-29T00:10:04;101414.88;;;17.17;65.72
72055;BME280;59936;51.490;5.436;2022-07-29T00:10:10;101411.09;;;17.21;65.93
72055;BME280;59936;51.490;5.436;2022-07-29T00:10:15;101412.81;;;17.22;66.02
72055;BME280;59936;51.490;5.436;2022-07-29T00:10:21;101413.75;;;17.21;66.52
72055;BME280;59936;51.490;5.436;2022-07-29T00:10:26;101414.03;;;17.17;66.55
72055;BME280;59936;51.490;5.436;2022-07-29T00:10:32;101409.78;;;17.14;66.69
72055;BME280;59936;51.490;5.436;2022-07-29T00:10:38;101407.72;;;17.19;66.62
72055;BME280;59936;51.490;5.436;2022-07-29T00:10:43;101412.81;;;17.22;66.13
72055;BME280;59936;51.490;5.436;2022-07-29T00:10:49;101414.31;;;17.27;65.92
72055;BME280;59936;51.490;5.436;2022-07-29T00:10:54;101407.34;;;17.25;65.89
72055;BME280;59936;51.490;5.436;2022-07-29T00:11:00;101404.06;;;17.22;66.03
72055;BME280;59936;51.490;5.436;2022-07-29T00:11:05;101409.25;;;17.23;65.82
72055;BME280;59936;51.490;5.436;2022-07-29T00:11:10;101411.78;;;17.25;65.91
72055;BME280;59936;51.490;5.436;2022-07-29T00:11:16;101408.00;;;17.29;65.89
72055;BME280;59936;51.490;5.436;2022-07-29T00:11:21;101409.59;;;17.32;65.77
72055;BME280;59936;51.490;5.436;2022-07-29T00:11:26;101410.19;;;17.22;65.87
72055;BME280;59936;51.490;5.436;2022-07-29T00:11:32;101401.22;;;17.10;65.80
72055;BME280;59936;51.490;5.436;2022-07-29T00:11:37;101417.47;;;17.03;65.77
72055;BME280;59936;51.490;5.436;2022-07-29T00:11:43;101418.91;;;16.94;65.82
72055;BME280;59936;51.490;5.436;2022-07-29T00:11:48;101416.53;;;16.89;66.19
72055;BME280;59936;51.490;5.436;2022-07-29T00:11:57;101416.63;;;16.88;66.41
72055;BME280;59936;51.490;5.436;2022-07-29T00:12:05;101410.91;;;16.95;66.42
72055;BME280;59936;51.490;5.436;2022-07-29T00:12:10;101419.53;;;16.97;66.44
72055;BME280;59936;51.490;5.436;2022-07-29T00:12:16;101408.25;;;16.95;66.35
72055;BME280;59936;51.490;5.436;2022-07-29T00:12:24;101410.91;;;16.95;66.38
72055;BME280;59936;51.490;5.436;2022-07-29T00:12:30;101418.41;;;17.02;66.25
72055;BME280;59936;51.490;5.436;2022-07-29T00:12:35;101414.59;;;17.07;66.19
72055;BME280;59936;51.490;5.436;2022-07-29T00:12:41;101420.72;;;17.08;66.20
72055;BME280;59936;51.490;5.436;2022-07-29T00:12:46;101411.78;;;17.10;66.11
72055;BME280;59936;51.490;5.436;2022-07-29T00:12:52;101413.38;;;17.13;66.15
72055;BME280;59936;51.490;5.436;2022-07-29T00:12:57;101412.16;;;17.19;65.98
72055;BME280;59936;51.490;5.436;2022-07-29T00:13:03;101409.25;;;17.23;65.64
72055;BME280;59936;51.490;5.436;2022-07-29T00:13:08;101404.69;;;17.25;65.48
72055;BME280;59936;51.490;5.436;2022-07-29T00:13:13;101409.69;;;17.30;65.53
72055;BME280;59936;51.490;5.436;2022-07-29T00:13:19;101409.50;;;17.33;65.58
72055;BME280;59936;51.490;5.436;2022-07-29T00:13:24;101412.06;;;17.35;65.43
72055;BME280;59936;51.490;5.436;2022-07-29T00:13:29;101409.19;;;17.38;65.14
72055;BME280;59936;51.490;5.436;2022-07-29T00:13:35;101413.56;;;17.39;65.03
72055;BME280;59936;51.490;5.436;2022-07-29T00:13:40;101407.34;;;17.40;65.15
72055;BME280;59936;51.490;5.436;2022-07-29T00:13:46;101415.25;;;17.40;64.96
72055;BME280;59936;51.490;5.436;2022-07-29T00:13:51;101408.09;;;17.42;65.11
72055;BME280;59936;51.490;5.436;2022-07-29T00:13:56;101413.38;;;17.42;65.01
72055;BME280;59936;51.490;5.436;2022-07-29T00:14:02;101412.41;;;17.43;65.16
72055;BME280;59936;51.490;5.436;2022-07-29T00:14:08;101409.78;;;17.43;64.72
72055;BME280;59936;51.490;5.436;2022-07-29T00:14:13;101404.88;;;17.37;65.06
72055;BME280;59936;51.490;5.436;2022-07-29T00:14:18;101408.84;;;17.30;65.05
72055;BME280;59936;51.490;5.436;2022-07-29T00:14:24;101414.50;;;17.23;65.53
72055;BME280;59936;51.490;5.436;2022-07-29T00:14:29;101412.41;;;17.14;65.69
72055;BME280;59936;51.490;5.436;2022-07-29T00:14:35;101407.63;;;17.06;65.99
72055;BME280;59936;51.490;5.436;2022-07-29T00:14:40;101404.41;;;17.01;66.15
72055;BME280;59936;51.490;5.436;2022-07-29T00:14:46;101412.59;;;16.96;66.54
72055;BME280;59936;51.490;5.436;2022-07-29T00:14:52;101414.66;;;16.91;66.32
72055;BME280;59936;51.490;5.436;2022-07-29T00:14:59;101413.97;;;16.88;66.53
72055;BME280;59936;51.490;5.436;2022-07-29T00:15:04;101420.28;;;16.85;66.49
72055;BME280;59936;51.490;5.436;2022-07-29T00:15:10;101415.97;;;16.84;66.49
72055;BME280;59936;51.490;5.436;2022-07-29T00:15:16;101415.88;;;16.85;66.46
72055;BME280;59936;51.490;5.436;2022-07-29T00:15:21;101418.03;;;16.93;66.40
72055;BME280;59936;51.490;5.436;2022-07-29T00:15:27;101404.59;;;16.98;66.37
72055;BME280;59936;51.490;5.436;2022-07-29T00:15:33;101407.88;;;17.02;66.54
72055;BME280;59936;51.490;5.436;2022-07-29T00:15:38;101408.06;;;16.98;66.98
72055;BME280;59936;51.490;5.436;2022-07-29T00:15:44;101409.84;;;16.98;66.94
72055;BME280;59936;51.490;5.436;2022-07-29T00:15:49;101410.50;;;17.02;66.05
72055;BME280;59936;51.490;5.436;2022-07-29T00:15:55;101415.44;;;17.08;66.53
72055;BME280;59936;51.490;5.436;2022-07-29T00:16:00;101413.38;;;17.13;66.27
72055;BME280;59936;51.490;5.436;2022-07-29T00:16:05;101412.25;;;17.17;66.21
72055;BME280;59936;51.490;5.436;2022-07-29T00:16:11;101415.56;;;17.21;65.53
72055;BME280;59936;51.490;5.436;2022-07-29T00:16:16;101410.19;;;17.22;65.73
72055;BME280;59936;51.490;5.436;2022-07-29T00:16:21;101410.91;;;17.24;65.39
72055;BME280;59936;51.490;5.436;2022-07-29T00:16:28;101414.31;;;17.27;65.48
72055;BME280;59936;51.490;5.436;2022-07-29T00:16:33;101404.91;;;17.22;65.71
72055;BME280;59936;51.490;5.436;2022-07-29T00:16:39;101407.72;;;17.19;65.67
72055;BME280;59936;51.490;5.436;2022-07-29T00:16:45;101408.47;;;17.21;65.66
72055;BME280;59936;51.490;5.436;2022-07-29T00:16:50;101407.72;;;17.19;65.85
72055;BME280;59936;51.490;5.436;2022-07-29T00:16:55;101412.81;;;17.22;65.80
72055;BME280;59936;51.490;5.436;2022-07-29T00:17:01;101409.25;;;17.23;65.63
72055;BME280;59936;51.490;5.436;2022-07-29T00:17:06;101409.25;;;17.23;65.55
72055;BME280;59936;51.490;5.436;2022-07-29T00:17:11;101404.78;;;17.24;65.88
72055;BME280;59936;51.490;5.436;2022-07-29T00:17:17;101411.69;;;17.27;65.52
72055;BME280;59936;51.490;5.436;2022-07-29T00:17:23;101406.19;;;17.30;65.29
72055;BME280;59936;51.490;5.436;2022-07-29T00:17:29;101413.94;;;17.33;65.57
72055;BME280;59936;51.490;5.436;2022-07-29T00:17:35;101410.34;;;17.34;65.23
72055;BME280;59936;51.490;5.436;2022-07-29T00:17:40;101407.59;;;17.35;65.17
72055;BME280;59936;51.490;5.436;2022-07-29T00:17:46;101412.78;;;17.37;65.23
72055;BME280;59936;51.490;5.436;2022-07-29T00:17:51;101409.19;;;17.38;65.15
72055;BME280;59936;51.490;5.436;2022-07-29T00:17:56;101406.47;;;17.40;65.14
72055;BME280;59936;51.490;5.436;2022-07-29T00:18:02;101410.81;;;17.41;65.13
72055;BME280;59936;51.490;5.436;2022-07-29T00:18:08;101408.28;;;17.39;64.93
72055;BME280;59936;51.490;5.436;2022-07-29T00:18:13;101405.84;;;17.36;64.96
72055;BME280;59936;51.490;5.436;2022-07-29T00:18:19;101410.47;;;17.32;65.12
72055;BME280;59936;51.490;5.436;2022-07-29T00:18:24;101408.66;;;17.33;65.26
72055;BME280;59936;51.490;5.436;2022-07-29T00:18:29;101412.44;;;17.29;65.53
72055;BME280;59936;51.490;5.436;2022-07-29T00:18:35;101411.88;;;17.23;65.37
72055;BME280;59936;51.490;5.436;2022-07-29T00:18:40;101406.69;;;17.22;65.36
72055;BME280;59936;51.490;5.436;2022-07-29T00:18:45;101406.88;;;17.19;65.82
72055;BME280;59936;51.490;5.436;2022-07-29T00:18:51;101404.41;;;17.16;65.50
72055;BME280;59936;51.490;5.436;2022-07-29T00:18:56;101406.22;;;17.15;65.55
72055;BME280;59936;51.490;5.436;2022-07-29T00:19:03;101407.16;;;17.14;65.53
72055;BME280;59936;51.490;5.436;2022-07-29T00:19:09;101408.09;;;17.13;65.75
72055;BME280;59936;51.490;5.436;2022-07-29T00:19:14;101412.72;;;17.09;65.89
72055;BME280;59936;51.490;5.436;2022-07-29T00:19:20;101414.69;;;17.06;65.97
72055;BME280;59936;51.490;5.436;2022-07-29T00:19:25;101410.31;;;17.05;66.33
72055;BME280;59936;51.490;5.436;2022-07-29T00:19:30;101411.88;;;17.09;66.34
72055;BME280;59936;51.490;5.436;2022-07-29T00:19:36;101415.19;;;17.13;66.10
72055;BME280;59936;51.490;5.436;2022-07-29T00:19:41;101408.00;;;17.15;65.88
72055;BME280;59936;51.490;5.436;2022-07-29T00:19:47;101406.97;;;17.17;65.63
72055;BME280;59936;51.490;5.436;2022-07-29T00:19:52;101405.84;;;17.21;65.55
72055;BME280;59936;51.490;5.436;2022-07-29T00:19:57;101406.59;;;17.23;65.27
72055;BME280;59936;51.490;5.436;2022-07-29T00:20:03;101414.31;;;17.27;65.52
72055;BME280;59936;51.490;5.436;2022-07-29T00:20:10;101406.19;;;17.30;65.78
72055;BME280;59936;51.490;5.436;2022-07-29T00:20:15;101406.09;;;17.31;65.24
72055;BME280;59936;51.490;5.436;2022-07-29T00:20:21;101406.88;;;17.33;65.51
72055;BME280;59936;51.490;5.436;2022-07-29T00:20:26;101409.59;;;17.32;65.96
72055;BME280;59936;51.490;5.436;2022-07-29T00:20:32;101406.09;;;17.31;65.89
72055;BME280;59936;51.490;5.436;2022-07-29T00:20:37;101400.75;;;17.33;65.53
72055;BME280;59936;51.490;5.436;2022-07-29T00:20:43;101406.78;;;17.35;65.69
72055;BME280;59936;51.490;5.436;2022-07-29T00:20:48;101405.84;;;17.36;65.45
72055;BME280;59936;51.490;5.436;2022-07-29T00:20:53;101408.47;;;17.36;65.47
72055;BME280;59936;51.490;5.436;2022-07-29T00:20:59;101409.50;;;17.33;65.74
72055;BME280;59936;51.490;5.436;2022-07-29T00:21:04;101403.66;;;17.28;65.88
72055;BME280;59936;51.490;5.436;2022-07-29T00:21:10;101410.75;;;17.28;65.57
72055;BME280;59936;51.490;5.436;2022-07-29T00:21:15;101411.56;;;17.28;65.81
72055;BME280;59936;51.490;5.436;2022-07-29T00:21:21;101403.78;;;17.27;66.12
72055;BME280;59936;51.490;5.436;2022-07-29T00:21:26;101412.53;;;17.27;65.88
72055;BME280;59936;51.490;5.436;2022-07-29T00:21:31;101408.84;;;17.30;65.87
72055;BME280;59936;51.490;5.436;2022-07-29T00:21:37;101401.69;;;17.32;65.90
72055;BME280;59936;51.490;5.436;2022-07-29T00:21:42;101410.34;;;17.34;65.41
72055;BME280;59936;51.490;5.436;2022-07-29T00:21:48;101413.75;;;17.36;65.56
72055;BME280;59936;51.490;5.436;2022-07-29T00:21:53;101407.50;;;17.37;65.34
72055;BME280;59936;51.490;5.436;2022-07-29T00:21:58;101408.28;;;17.39;65.29
72055;BME280;59936;51.490;5.436;2022-07-29T00:22:04;101403.84;;;17.40;65.14
72055;BME280;59936;51.490;5.436;2022-07-29T00:22:09;101408.09;;;17.42;65.31
72055;BME280;59936;51.490;5.436;2022-07-29T00:22:14;101410.75;;;17.42;65.20
72055;BME280;59936;51.490;5.436;2022-07-29T00:22:20;101409.78;;;17.43;64.95
72055;BME280;59936;51.490;5.436;2022-07-29T00:22:25;101412.31;;;17.45;65.57
72055;BME280;59936;51.490;5.436;2022-07-29T00:22:31;101408.84;;;17.44;65.20
72055;BME280;59936;51.490;5.436;2022-07-29T00:22:37;101411.56;;;17.43;64.97
72055;BME280;59936;51.490;5.436;2022-07-29T00:22:43;101408.09;;;17.42;64.98
72055;BME280;59936;51.490;5.436;2022-07-29T00:22:49;101410.06;;;17.38;65.26
72055;BME280;59936;51.490;5.436;2022-07-29T00:22:54;101407.69;;;17.34;65.40
72055;BME280;59936;51.490;5.436;2022-07-29T00:22:59;101410.34;;;17.34;65.47
72055;BME280;59936;51.490;5.436;2022-07-29T00:23:05;101408.00;;;17.29;65.55
72055;BME280;59936;51.490;5.436;2022-07-29T00:23:10;101410.28;;;17.21;65.71
72055;BME280;59936;51.490;5.436;2022-07-29T00:23:15;101408.88;;;17.15;65.99
72055;BME280;59936;51.490;5.436;2022-07-29T00:23:21;101410.91;;;17.10;65.89
72055;BME280;59936;51.490;5.436;2022-07-29T00:23:26;101412.03;;;17.06;66.45
72055;BME280;59936;51.490;5.436;2022-07-29T00:23:32;101408.81;;;17.01;66.49
72055;BME280;59936;51.490;5.436;2022-07-29T00:23:37;101412.59;;;16.96;66.70
72055;BME280;59936;51.490;5.436;2022-07-29T00:23:42;101409.28;;;16.93;66.51
72055;BME280;59936;51.490;5.436;2022-07-29T00:23:48;101412.94;;;16.90;66.99
72055;BME280;59936;51.490;5.436;2022-07-29T00:23:53;101415.56;;;16.90;66.75
72055;BME280;59936;51.490;5.436;2022-07-29T00:23:58;101404.94;;;16.92;67.07
72055;BME280;59936;51.490;5.436;2022-07-29T00:24:04;101407.31;;;16.96;66.92
72055;BME280;59936;51.490;5.436;2022-07-29T00:24:09;101413.06;;;17.03;66.51
72055;BME280;59936;51.490;5.436;2022-07-29T00:24:15;101407.53;;;17.08;66.71
72055;BME280;59936;51.490;5.436;2022-07-29T00:24:20;101404.72;;;17.11;66.56
72055;BME280;59936;51.490;5.436;2022-07-29T00:24:26;101408.28;;;17.10;67.29
72055;BME280;59936;51.490;5.436;2022-07-29T00:24:31;101415.28;;;17.11;66.62
72055;BME280;59936;51.490;5.436;2022-07-29T00:24:37;101413.66;;;17.08;66.21
72055;BME280;59936;51.490;5.436;2022-07-29T00:24:42;101414.75;;;17.04;66.74
72055;BME280;59936;51.490;5.436;2022-07-29T00:24:48;101414.28;;;16.97;66.34
72055;BME280;59936;51.490;5.436;2022-07-29T00:24:54;101418.03;;;16.93;66.43
72055;BME280;59936;51.490;5.436;2022-07-29T00:24:59;101415.50;;;16.92;66.82
72055;BME280;59936;51.490;5.436;2022-07-29T00:25:05;101417.38;;;16.90;66.64
72055;BME280;59936;51.490;5.436;2022-07-29T00:25:12;101420.94;;;16.89;66.96
72055;BME280;59936;51.490;5.436;2022-07-29T00:25:18;101419.16;;;16.89;66.87
72055;BME280;59936;51.490;5.436;2022-07-29T00:25:24;101415.66;;;16.89;67.02
72055;BME280;59936;51.490;5.436;2022-07-29T00:25:29;101415.78;;;16.87;66.77
72055;BME280;59936;51.490;5.436;2022-07-29T00:25:34;101415.03;;;16.85;67.04
72055;BME280;59936;51.490;5.436;2022-07-29T00:25:40;101411.63;;;16.83;66.93
72055;BME280;59936;51.490;5.436;2022-07-29T00:25:45;101413.34;;;16.84;67.21
72055;BME280;59936;51.490;5.436;2022-07-29T00:25:51;101416.72;;;16.86;66.85
72055;BME280;59936;51.490;5.436;2022-07-29T00:25:56;101420.28;;;16.85;67.27
72055;BME280;59936;51.490;5.436;2022-07-29T00:26:01;101417.75;;;16.83;67.15
72055;BME280;59936;51.490;5.436;2022-07-29T00:26:07;101415.97;;;16.84;67.61
72055;BME280;59936;51.490;5.436;2022-07-29T00:26:13;101418.44;;;16.87;67.25
72055;BME280;59936;51.490;5.436;2022-07-29T00:26:18;101421.81;;;16.89;67.20
72055;BME280;59936;51.490;5.436;2022-07-29T00:26:23;101416.44;;;16.91;67.43
72055;BME280;59936;51.490;5.436;2022-07-29T00:26:29;101412.59;;;16.96;66.91
72055;BME280;59936;51.490;5.436;2022-07-29T00:26:36;101410.69;;;16.98;67.03
72055;BME280;59936;51.490;5.436;2022-07-29T00:26:42;101408.25;;;16.95;67.18
72055;BME280;59936;51.490;5.436;2022-07-29T00:26:47;101416.34;;;16.92;67.14
72055;BME280;59936;51.490;5.436;2022-07-29T00:26:52;101422.66;;;16.90;67.20
72055;BME280;59936;51.490;5.436;2022-07-29T00:26:58;101416.53;;;16.89;67.19
72055;BME280;59936;51.490;5.436;2022-07-29T00:27:03;101422.84;;;16.86;67.17
72055;BME280;59936;51.490;5.436;2022-07-29T00:27:09;101423.88;;;16.84;67.25
72055;BME280;59936;51.490;5.436;2022-07-29T00:27:14;101419.63;;;16.81;67.20
72055;BME280;59936;51.490;5.436;2022-07-29T00:27:19;101417.09;;;16.80;66.99
72055;BME280;59936;51.490;5.436;2022-07-29T00:27:25;101418.88;;;16.79;67.51
72055;BME280;59936;51.490;5.436;2022-07-29T00:27:30;101409.28;;;16.78;67.64
72055;BME280;59936;51.490;5.436;2022-07-29T00:27:36;101418.13;;;16.77;67.58
72055;BME280;59936;51.490;5.436;2022-07-29T00:27:41;101413.69;;;16.78;67.34
72055;BME280;59936;51.490;5.436;2022-07-29T00:27:47;101416.22;;;16.79;67.74
72055;BME280;59936;51.490;5.436;2022-07-29T00:27:52;101417.91;;;16.80;67.28
72055;BME280;59936;51.490;5.436;2022-07-29T00:27:57;101417.84;;;16.82;67.28
72055;BME280;59936;51.490;5.436;2022-07-29T00:28:03;101414.84;;;16.88;67.19
72055;BME280;59936;51.490;5.436;2022-07-29T00:28:08;101416.16;;;16.95;67.13
72055;BME280;59936;51.490;5.436;2022-07-29T00:28:14;101420.31;;;16.99;67.02
72055;BME280;59936;51.490;5.436;2022-07-29T00:28:19;101415.59;;;17.05;66.69
72055;BME280;59936;51.490;5.436;2022-07-29T00:28:24;101417.13;;;17.09;66.54
72055;BME280;59936;51.490;5.436;2022-07-29T00:28:30;101413.38;;;17.13;66.38
72055;BME280;59936;51.490;5.436;2022-07-29T00:28:35;101417.59;;;17.16;66.62
72055;BME280;59936;51.490;5.436;2022-07-29T00:28:40;101417.50;;;17.17;66.40
72055;BME280;59936;51.490;5.436;2022-07-29T00:28:46;101415.72;;;17.18;65.93
72055;BME280;59936;51.490;5.436;2022-07-29T00:28:51;101411.50;;;17.15;66.33
72055;BME280;59936;51.490;5.436;2022-07-29T00:28:58;101412.81;;;17.08;66.31
72055;BME280;59936;51.490;5.436;2022-07-29T00:29:04;101415.78;;;17.02;66.58
72055;BME280;59936;51.490;5.436;2022-07-29T00:29:10;101412.50;;;16.98;66.78
72055;BME280;59936;51.490;5.436;2022-07-29T00:29:15;101416.91;;;16.97;66.57